Time;durP1;ratioP1;P1;durP2;ratioP2;P2;SDS_P1;SDS_P2;PMS_P1;PMS_P2;Temp;Humidity;BMP_temperature;BMP_pressure;BME280_temperature;BME280_humidity;BME280_pressure;Samples;Min_cycle;Max_cycle;Signal;HPM_P1;HPM_P2
2023/10/19 00:00:48;;;;;;;19.55;11.13;;;;;;;4.82;100.00;97226.88;3164192;23;20590;-91
2023/10/19 00:02:23;;;;;;;21.20;10.25;;;;;;;4.96;100.00;97223.97;3163759;23;20034;-90
2023/10/19 00:03:38;;;;;;;21.10;10.45;;;;;;;5.09;100.00;97229.69;3163923;23;20022;-90
2023/10/19 00:04:54;;;;;;;18.75;10.23;;;;;;;5.08;100.00;97236.59;3147970;23;20026;-90
2023/10/19 00:06:11;;;;;;;20.83;10.18;;;;;;;4.90;100.00;97237.06;3154717;23;20403;-90
2023/10/19 00:07:27;;;;;;;21.98;11.73;;;;;;;4.88;100.00;97231.91;3148426;23;20022;-91
2023/10/19 00:08:43;;;;;;;25.80;14.30;;;;;;;4.82;100.00;97237.25;3139691;23;20030;-89
2023/10/19 00:09:58;;;;;;;22.50;12.73;;;;;;;4.94;100.00;97228.31;3155039;23;20030;-91
2023/10/19 00:11:25;;;;;;;24.15;12.85;;;;;;;4.85;100.00;97237.19;3164840;23;20025;-90
2023/10/19 00:12:43;;;;;;;22.25;10.75;;;;;;;4.43;100.00;97232.13;3164394;23;20018;-90
2023/10/19 00:13:59;;;;;;;19.70;9.52;;;;;;;4.41;100.00;97234.78;3164623;23;20033;-89
2023/10/19 00:15:15;;;;;;;22.77;10.27;;;;;;;4.59;100.00;97233.47;3164740;23;20350;-90
2023/10/19 00:16:30;;;;;;;19.25;9.93;;;;;;;4.65;100.00;97235.06;3148941;23;20322;-90
2023/10/19 00:17:46;;;;;;;20.52;9.90;;;;;;;4.89;100.00;97233.66;3154244;23;20395;-91
2023/10/19 00:19:03;;;;;;;18.80;9.95;;;;;;;4.94;100.00;97229.19;3164067;23;20462;-90
2023/10/19 00:20:35;;;;;;;20.08;9.57;;;;;;;4.81;100.00;97232.97;3163866;23;20042;-91
2023/10/19 00:21:50;;;;;;;23.63;10.35;;;;;;;5.13;100.00;97233.06;3164443;23;20025;-91
2023/10/19 00:23:06;;;;;;;31.95;14.93;;;;;;;5.11;100.00;97227.91;3163609;23;20116;-90
2023/10/19 00:24:23;;;;;;;31.25;16.75;;;;;;;5.05;100.00;97233.25;3165110;23;20076;-93
2023/10/19 00:25:44;;;;;;;26.65;15.07;;;;;;;4.99;100.00;97231.66;3149275;23;20558;-90
2023/10/19 00:27:05;;;;;;;33.17;17.25;;;;;;;4.93;100.00;97237.00;3156470;23;20044;-91
2023/10/19 00:28:22;;;;;;;33.72;16.75;;;;;;;4.95;100.00;97236.06;3164444;23;20462;-90
2023/10/19 00:29:41;;;;;;;31.48;16.80;;;;;;;5.01;100.00;97224.69;3164718;23;20352;-89
2023/10/19 00:31:03;;;;;;;32.83;17.13;;;;;;;5.03;100.00;97229.81;3164839;23;20101;-90
2023/10/19 00:32:19;;;;;;;31.55;16.02;;;;;;;4.89;100.00;97225.00;3164628;23;20026;-90
2023/10/19 00:33:38;;;;;;;30.58;14.82;;;;;;;5.03;100.00;97228.09;3164340;23;20116;-89
2023/10/19 00:34:55;;;;;;;24.23;13.27;;;;;;;5.06;100.00;97228.00;3148295;23;20465;-89
2023/10/19 00:36:13;;;;;;;24.58;13.60;;;;;;;5.13;100.00;97230.47;3155379;23;20480;-89
2023/10/19 00:37:32;;;;;;;27.60;15.20;;;;;;;5.11;100.00;97224.47;3164949;23;20114;-91
2023/10/19 00:40:15;;;;;;;23.80;13.95;;;;;;;5.03;100.00;97219.44;3153781;23;20018;-90
2023/10/19 00:41:31;;;;;;;24.23;13.82;;;;;;;5.05;100.00;97218.53;3146727;23;20018;-90
2023/10/19 00:42:52;;;;;;;25.15;14.50;;;;;;;5.11;100.00;97219.28;3138107;23;20360;-91
2023/10/19 00:44:11;;;;;;;24.65;12.85;;;;;;;5.04;100.00;97209.03;3155996;23;20490;-90
2023/10/19 00:45:27;;;;;;;25.55;12.80;;;;;;;4.78;100.00;97204.53;3164068;23;20026;-90
2023/10/19 00:46:49;;;;;;;22.50;12.68;;;;;;;4.70;100.00;97211.63;3164430;23;20033;-90
2023/10/19 00:48:08;;;;;;;21.45;11.68;;;;;;;4.87;100.00;97201.69;3147976;23;20097;-90
2023/10/19 00:49:23;;;;;;;22.92;12.75;;;;;;;4.87;100.00;97199.09;3155310;23;20025;-89
2023/10/19 00:50:40;;;;;;;24.40;13.05;;;;;;;4.84;100.00;97196.59;3164871;23;20426;-89
2023/10/19 00:52:19;;;;;;;22.05;11.95;;;;;;;4.98;100.00;97193.66;3163506;23;20446;-89
2023/10/19 00:53:38;;;;;;;20.48;11.73;;;;;;;5.13;100.00;97186.38;3163237;23;20053;-89
2023/10/19 00:54:58;;;;;;;21.90;12.48;;;;;;;5.13;100.00;97189.78;3163371;23;20022;-89
2023/10/19 00:56:17;;;;;;;25.85;13.20;;;;;;;5.07;100.00;97195.16;3165246;23;20553;-90
2023/10/19 00:57:34;;;;;;;26.13;13.90;;;;;;;4.90;100.00;97185.22;3163739;23;20021;-90
2023/10/19 01:00:34;;;;;;;24.42;13.23;;;;;;;5.04;100.00;97184.88;3164172;23;20041;-90
2023/10/19 01:01:54;;;;;;;25.15;13.00;;;;;;;5.07;100.00;97184.78;3163630;23;20442;-91
2023/10/19 01:03:16;;;;;;;25.00;13.75;;;;;;;5.16;100.00;97187.09;3163916;23;20101;-90
2023/10/19 01:04:34;;;;;;;25.58;13.73;;;;;;;4.98;100.00;97180.69;3163195;23;20022;-90
2023/10/19 01:05:49;;;;;;;24.20;13.60;;;;;;;5.09;100.00;97185.59;3163050;23;20025;-91
2023/10/19 01:07:15;;;;;;;26.65;13.07;;;;;;;5.12;100.00;97182.91;3163640;23;20022;-90
2023/10/19 01:08:41;;;;;;;22.10;12.77;;;;;;;5.19;100.00;97183.59;3165352;23;20068;-90
2023/10/19 01:12:01;;;;;;;22.95;11.90;;;;;;;5.08;100.00;97181.28;3131520;23;20360;-89
2023/10/19 01:13:16;;;;;;;22.42;11.57;;;;;;;4.98;100.00;97183.28;3131828;23;20035;-90
2023/10/19 01:14:32;;;;;;;22.15;10.95;;;;;;;4.89;100.00;97186.09;3131721;23;20018;-90
2023/10/19 01:15:49;;;;;;;19.63;10.82;;;;;;;4.85;100.00;97185.31;3132043;23;20120;-90
2023/10/19 01:17:06;;;;;;;20.05;10.20;;;;;;;4.45;100.00;97194.06;3131846;23;20407;-89
2023/10/19 01:18:22;;;;;;;13.02;7.40;;;;;;;4.34;100.00;97204.69;3132284;23;20027;-89
2023/10/19 01:19:39;;;;;;;22.75;10.93;;;;;;;4.60;100.00;97200.63;3132449;23;20034;-90
2023/10/19 01:20:55;;;;;;;22.02;10.88;;;;;;;4.98;100.00;97196.25;3132737;23;20034;-90
2023/10/19 01:22:16;;;;;;;22.75;11.13;;;;;;;4.94;100.00;97204.97;3132765;23;20819;-89
2023/10/19 01:23:31;;;;;;;19.75;11.10;;;;;;;5.13;100.00;97205.34;3132610;23;20027;-90
2023/10/19 01:24:48;;;;;;;19.75;10.73;;;;;;;5.05;100.00;97204.72;3131765;23;20367;-90
2023/10/19 01:26:07;;;;;;;21.80;11.00;;;;;;;5.00;100.00;97204.84;3133651;23;20094;-89
2023/10/19 01:27:23;;;;;;;21.70;11.10;;;;;;;5.00;100.00;97198.78;3133355;23;20412;-89
2023/10/19 01:28:42;;;;;;;20.77;10.93;;;;;;;5.01;100.00;97201.34;3132069;23;20026;-89
2023/10/19 01:30:01;;;;;;;24.27;12.13;;;;;;;5.09;100.00;97208.94;3131885;23;20034;-90
2023/10/19 01:32:43;;;;;;;18.30;10.07;;;;;;;5.16;100.00;97199.25;3132957;23;20114;-89
2023/10/19 01:34:03;;;;;;;20.45;10.45;;;;;;;5.21;100.00;97199.97;3133001;23;20031;-90
2023/10/19 01:35:18;;;;;;;23.58;10.77;;;;;;;5.28;100.00;97192.88;3132819;23;20464;-90
2023/10/19 01:36:42;;;;;;;21.38;10.88;;;;;;;5.36;100.00;97193.53;3131815;23;20022;-89
2023/10/19 01:38:00;;;;;;;18.85;10.90;;;;;;;5.40;100.00;97186.50;3133306;23;20101;-89
2023/10/19 01:39:18;;;;;;;19.60;10.57;;;;;;;5.48;100.00;97181.94;3133483;23;20034;-89
2023/10/19 01:40:33;;;;;;;21.45;11.40;;;;;;;5.31;100.00;97177.25;3133539;23;20023;-89
2023/10/19 01:41:50;;;;;;;22.25;11.82;;;;;;;5.36;100.00;97180.56;3134099;23;20027;-89
2023/10/19 01:43:06;;;;;;;19.90;11.82;;;;;;;5.49;100.00;97170.66;3144037;23;20833;-90
2023/10/19 01:44:21;;;;;;;21.17;11.25;;;;;;;5.35;100.00;97169.31;3164358;23;20021;-89
2023/10/19 01:45:37;;;;;;;22.95;11.75;;;;;;;5.44;100.00;97165.59;3148942;23;20363;-90
2023/10/19 01:46:52;;;;;;;20.00;10.80;;;;;;;5.52;100.00;97165.41;3154704;23;20454;-90
2023/10/19 01:48:08;;;;;;;20.40;10.68;;;;;;;5.51;100.00;97159.34;3164975;23;20100;-89
2023/10/19 01:49:28;;;;;;;21.40;11.85;;;;;;;5.51;100.00;97148.09;3149133;23;20022;-89
2023/10/19 01:50:43;;;;;;;18.23;10.48;;;;;;;5.19;100.00;97142.06;3156251;23;20445;-89
2023/10/19 01:52:00;;;;;;;21.98;11.45;;;;;;;5.12;100.00;97138.78;3164379;23;20022;-90
2023/10/19 01:53:17;;;;;;;20.17;11.15;;;;;;;4.95;100.00;97137.50;3165659;23;20048;-90
2023/10/19 01:54:34;;;;;;;22.10;11.68;;;;;;;5.36;100.00;97137.25;3165397;23;20446;-90
2023/10/19 01:55:57;;;;;;;21.23;11.30;;;;;;;5.53;100.00;97142.88;3166446;23;20026;-90
2023/10/19 01:57:14;;;;;;;22.67;10.68;;;;;;;5.58;100.00;97122.81;3165635;23;20113;-90
2023/10/19 01:58:30;;;;;;;20.52;10.73;;;;;;;5.34;100.00;97081.97;3165632;23;20383;-90
2023/10/19 01:59:45;;;;;;;18.95;10.02;;;;;;;5.31;100.00;97039.69;3167279;23;20025;-88
2023/10/19 02:01:02;;;;;;;18.75;10.60;;;;;;;4.91;100.00;97010.53;3167337;23;20395;-89
2023/10/19 02:02:17;;;;;;;20.45;9.82;;;;;;;4.61;100.00;97003.59;3166388;23;20191;-90
2023/10/19 02:03:35;;;;;;;19.90;10.02;;;;;;;4.57;100.00;97014.91;3167180;23;20033;-91
2023/10/19 02:04:53;;;;;;;15.50;8.88;;;;;;;4.83;100.00;97031.50;3149819;23;20527;-88
2023/10/19 02:06:26;;;;;;;17.77;9.18;;;;;;;4.99;100.00;97031.06;3156773;23;20029;-90
2023/10/19 02:07:41;;;;;;;15.85;7.45;;;;;;;5.03;100.00;97038.72;3166417;23;20026;-89
2023/10/19 02:10:32;;;;;;;19.95;9.75;;;;;;;5.56;100.00;97054.50;3165343;23;20026;-90
2023/10/19 02:11:49;;;;;;;17.15;9.32;;;;;;;5.72;100.00;97053.13;3165127;23;20022;-89
2023/10/19 02:13:06;;;;;;;17.83;9.23;;;;;;;5.86;100.00;97044.94;3166217;23;20355;-91
2023/10/19 02:14:25;;;;;;;17.98;10.40;;;;;;;6.02;100.00;97042.75;3166133;23;20049;-90
2023/10/19 02:15:41;;;;;;;19.20;10.55;;;;;;;5.93;100.00;97050.78;3170444;23;20089;-90
2023/10/19 02:16:58;;;;;;;18.50;9.68;;;;;;;6.03;100.00;97054.84;3178757;23;20006;-88
2023/10/19 02:18:14;;;;;;;19.85;10.25;;;;;;;6.04;100.00;97051.34;3179327;23;20038;-89
2023/10/19 02:19:30;;;;;;;18.40;10.65;;;;;;;5.93;100.00;97043.00;3179063;23;20006;-90
2023/10/19 02:20:48;;;;;;;19.73;10.05;;;;;;;5.83;100.00;97054.56;3178042;23;20165;-88
2023/10/19 02:22:07;;;;;;;19.30;11.00;;;;;;;5.76;100.00;97059.97;3178185;23;20025;-90
2023/10/19 02:23:22;;;;;;;16.98;9.90;;;;;;;5.85;100.00;97058.81;3163622;23;20018;-89
2023/10/19 02:24:38;;;;;;;18.75;9.82;;;;;;;6.00;100.00;97056.63;3168615;23;20018;-88
2023/10/19 02:25:54;;;;;;;15.10;9.43;;;;;;;6.11;100.00;97054.59;3178405;23;20044;-91
2023/10/19 02:27:10;;;;;;;16.88;10.07;;;;;;;6.17;100.00;97061.31;3178540;23;20270;-88
2023/10/19 02:28:31;;;;;;;17.77;10.00;;;;;;;6.01;100.00;97059.22;3178565;23;20026;-90
2023/10/19 02:29:46;;;;;;;17.17;10.10;;;;;;;6.08;100.00;97063.31;3162020;23;20011;-90
2023/10/19 02:31:18;;;;;;;16.85;9.93;;;;;;;6.12;100.00;97058.88;3168420;23;20057;-90
2023/10/19 02:32:34;;;;;;;16.90;8.85;;;;;;;6.24;100.00;97056.78;3178599;23;20085;-88
2023/10/19 02:33:58;;;;;;;15.38;8.85;;;;;;;6.25;100.00;97054.13;3177794;23;20006;-89
2023/10/19 02:35:14;;;;;;;17.15;10.10;;;;;;;6.27;100.00;97057.50;3179497;23;20018;-90
2023/10/19 02:36:32;;;;;;;14.93;9.20;;;;;;;6.25;100.00;97051.50;3179092;23;20002;-88
2023/10/19 02:37:47;;;;;;;16.20;9.35;;;;;;;6.23;100.00;97048.13;3169982;23;20053;-89
2023/10/19 02:39:11;;;;;;;17.15;9.38;;;;;;;6.19;100.00;97039.56;3165703;23;20025;-90
2023/10/19 02:40:31;;;;;;;16.73;9.45;;;;;;;6.26;100.00;97041.97;3167023;23;20025;-90
2023/10/19 02:41:48;;;;;;;18.02;9.75;;;;;;;6.11;100.00;97031.19;3167675;23;20041;-89
2023/10/19 02:43:04;;;;;;;18.58;9.18;;;;;;;6.18;100.00;97024.88;3166400;23;20013;-89
2023/10/19 02:44:22;;;;;;;17.17;9.55;;;;;;;5.99;100.00;97026.38;3166405;23;20045;-90
2023/10/19 02:45:37;;;;;;;16.33;8.57;;;;;;;5.84;100.00;97020.75;3164963;23;20021;-89
2023/10/19 02:46:58;;;;;;;17.08;9.05;;;;;;;5.86;100.00;97018.97;3165452;23;20450;-90
2023/10/19 02:48:14;;;;;;;15.25;9.35;;;;;;;5.96;100.00;97016.91;3165800;23;21073;-89
2023/10/19 02:49:30;;;;;;;18.80;8.90;;;;;;;6.16;100.00;97015.47;3149738;23;20428;-91
2023/10/19 02:50:47;;;;;;;15.30;8.25;;;;;;;5.85;100.00;97013.81;3156723;23;20089;-89
2023/10/19 02:52:05;;;;;;;17.65;9.13;;;;;;;5.93;100.00;97009.22;3165878;23;20050;-89
2023/10/19 02:53:21;;;;;;;15.70;9.07;;;;;;;5.70;100.00;97018.59;3165095;23;20021;-89
2023/10/19 02:54:36;;;;;;;17.27;8.95;;;;;;;5.78;100.00;97013.16;3164738;23;20077;-89
2023/10/19 02:55:52;;;;;;;18.17;9.55;;;;;;;5.70;100.00;97003.00;3149083;23;20130;-91
2023/10/19 02:57:09;;;;;;;17.30;8.68;;;;;;;6.08;100.00;97000.97;3155821;23;20022;-90
2023/10/19 02:58:27;;;;;;;18.08;10.05;;;;;;;6.24;100.00;96999.59;3163907;23;20029;-90
2023/10/19 02:59:46;;;;;;;18.35;9.35;;;;;;;6.31;100.00;96983.75;3165897;23;20561;-89
2023/10/19 03:01:02;;;;;;;16.02;9.40;;;;;;;6.35;100.00;96985.31;3163963;23;20129;-90
2023/10/19 03:02:17;;;;;;;13.93;8.60;;;;;;;6.35;100.00;96981.88;3164220;23;20066;-90
2023/10/19 03:03:33;;;;;;;18.73;9.57;;;;;;;6.41;100.00;96979.06;3148045;23;20022;-89
2023/10/19 03:04:48;;;;;;;16.65;8.85;;;;;;;6.37;100.00;96972.28;3154763;23;20178;-90
2023/10/19 03:06:06;;;;;;;15.52;8.52;;;;;;;6.39;100.00;96973.09;3163777;23;20032;-90
2023/10/19 03:07:21;;;;;;;17.55;9.25;;;;;;;6.45;100.00;96974.63;3164432;23;20049;-90
2023/10/19 03:08:37;;;;;;;16.88;9.98;;;;;;;6.55;100.00;96975.97;3164658;23;20029;-90
2023/10/19 03:09:55;;;;;;;18.92;9.15;;;;;;;6.50;100.00;96970.97;3165181;23;20462;-90
2023/10/19 03:11:13;;;;;;;17.23;9.35;;;;;;;6.49;100.00;96963.19;3165165;23;20109;-91
2023/10/19 03:12:30;;;;;;;18.45;10.68;;;;;;;6.36;100.00;96961.03;3164981;23;20101;-90
2023/10/19 03:13:49;;;;;;;17.13;9.60;;;;;;;6.36;100.00;96968.00;3165247;23;20026;-90
2023/10/19 03:15:05;;;;;;;18.27;9.35;;;;;;;6.32;100.00;96966.38;3133063;23;20563;-89
2023/10/19 03:16:23;;;;;;;25.35;11.82;;;;;;;6.24;100.00;96963.22;3145395;23;20018;-88
2023/10/19 03:17:38;;;;;;;20.38;10.63;;;;;;;6.03;100.00;96969.09;3165492;23;20029;-89
2023/10/19 03:18:55;;;;;;;21.30;10.05;;;;;;;5.75;100.00;96969.97;3163809;23;20030;-89
2023/10/19 03:20:11;;;;;;;15.95;9.73;;;;;;;5.72;100.00;96977.84;3163893;23;20021;-91
2023/10/19 03:21:27;;;;;;;17.35;9.90;;;;;;;5.71;100.00;96973.53;3147404;23;20027;-90
2023/10/19 03:22:46;;;;;;;19.17;10.07;;;;;;;5.84;100.00;96973.16;3154870;23;20025;-92
2023/10/19 03:24:12;;;;;;;18.52;10.02;;;;;;;6.14;100.00;96968.72;3163967;23;20026;-90
2023/10/19 03:27:18;;;;;;;17.15;9.57;;;;;;;6.26;100.00;96964.84;3164498;23;20049;-91
2023/10/19 03:28:35;;;;;;;16.80;9.13;;;;;;;6.08;100.00;96961.97;3147748;23;20506;-91
2023/10/19 03:29:55;;;;;;;17.77;9.65;;;;;;;6.32;100.00;96954.25;3154193;23;20026;-91
2023/10/19 03:31:20;;;;;;;18.33;9.77;;;;;;;6.44;100.00;96949.53;3163650;23;20022;-90
2023/10/19 03:32:36;;;;;;;17.98;9.18;;;;;;;6.37;100.00;96943.69;3164678;23;20033;-90
2023/10/19 03:33:55;;;;;;;20.95;9.65;;;;;;;6.35;100.00;96948.06;3147501;23;20359;-90
2023/10/19 03:35:15;;;;;;;17.45;9.38;;;;;;;6.36;100.00;96948.03;3155736;23;20050;-91
2023/10/19 03:36:32;;;;;;;16.08;8.70;;;;;;;5.93;100.00;96947.72;3149002;23;20097;-90
2023/10/19 03:37:50;;;;;;;17.65;8.38;;;;;;;5.97;100.00;96943.28;3155382;23;20021;-90
2023/10/19 03:39:13;;;;;;;17.83;8.88;;;;;;;6.23;100.00;96941.56;3149774;23;20045;-89
2023/10/19 03:40:30;;;;;;;18.63;9.40;;;;;;;6.36;100.00;96937.63;3141796;23;20063;-90
2023/10/19 03:41:46;;;;;;;15.27;9.40;;;;;;;6.43;100.00;96934.84;3156374;23;20351;-91
2023/10/19 03:43:10;;;;;;;16.65;9.70;;;;;;;6.49;100.00;96940.63;3164591;23;20022;-89
2023/10/19 03:44:26;;;;;;;17.38;9.25;;;;;;;6.41;100.00;96940.06;3165556;23;20069;-89
2023/10/19 03:45:47;;;;;;;18.33;9.02;;;;;;;6.35;100.00;96943.75;3164204;23;20398;-88
2023/10/19 03:47:05;;;;;;;16.73;8.98;;;;;;;6.32;100.00;96940.38;3147692;23;20031;-89
2023/10/19 03:48:29;;;;;;;15.50;8.70;;;;;;;6.44;100.00;96946.94;3156223;23;20025;-90
2023/10/19 03:49:46;;;;;;;15.95;9.43;;;;;;;6.30;100.00;96944.81;3163782;23;20076;-91
2023/10/19 03:51:02;;;;;;;16.98;9.30;;;;;;;5.91;100.00;96935.69;3149733;23;20026;-90
2023/10/19 03:53:35;;;;;;;16.30;9.70;;;;;;;6.04;100.00;96941.34;3155814;23;20014;-90
2023/10/19 03:54:51;;;;;;;19.80;9.70;;;;;;;5.87;100.00;96939.31;3164167;23;20481;-90
2023/10/19 03:56:10;;;;;;;18.52;10.00;;;;;;;5.91;100.00;96939.13;3163966;23;20026;-92
2023/10/19 03:57:29;;;;;;;21.27;9.80;;;;;;;5.97;100.00;96932.88;3164540;23;20041;-91
2023/10/19 03:58:50;;;;;;;18.33;9.98;;;;;;;6.04;100.00;96938.75;3163867;23;20440;-91
2023/10/19 04:00:10;;;;;;;19.98;10.15;;;;;;;6.17;100.00;96934.81;3164125;23;20295;-91
2023/10/19 04:01:27;;;;;;;18.38;9.57;;;;;;;6.05;100.00;96936.09;3163905;23;20032;-93
2023/10/19 04:02:42;;;;;;;17.55;10.30;;;;;;;6.23;100.00;96936.38;3164296;23;20028;-90
2023/10/19 04:03:57;;;;;;;17.30;9.43;;;;;;;6.20;100.00;96933.88;3163838;23;20026;-92
2023/10/19 04:05:22;;;;;;;17.88;10.02;;;;;;;6.18;100.00;96930.50;3163988;23;20022;-90
2023/10/19 04:06:37;;;;;;;18.25;9.77;;;;;;;6.06;100.00;96931.75;3163842;23;20568;-91
2023/10/19 04:07:57;;;;;;;19.48;9.88;;;;;;;6.31;100.00;96936.97;3148004;23;20026;-91
2023/10/19 04:09:17;;;;;;;16.50;9.70;;;;;;;6.29;100.00;96927.50;3155691;23;20025;-92
2023/10/19 04:10:38;;;;;;;17.02;9.80;;;;;;;6.25;100.00;96937.16;3163969;23;20056;-92
2023/10/19 04:11:56;;;;;;;17.17;9.40;;;;;;;6.42;100.00;96933.09;3147898;23;20497;-91
2023/10/19 04:13:12;;;;;;;16.38;9.48;;;;;;;6.48;100.00;96930.31;3154874;23;20400;-90
2023/10/19 04:14:30;;;;;;;17.88;9.95;;;;;;;6.44;100.00;96923.53;3164327;23;20097;-91
2023/10/19 04:15:49;;;;;;;17.33;9.93;;;;;;;6.33;100.00;96924.75;3164355;23;20038;-91
2023/10/19 04:17:05;;;;;;;17.75;10.07;;;;;;;6.28;100.00;96921.44;3163862;23;20026;-91
2023/10/19 04:18:22;;;;;;;19.05;10.85;;;;;;;6.26;100.00;96919.81;3148148;23;20146;-91
2023/10/19 04:19:39;;;;;;;18.17;9.93;;;;;;;6.33;100.00;96918.69;3154955;23;20105;-91
2023/10/19 04:22:21;;;;;;;20.90;9.98;;;;;;;6.39;100.00;96917.63;3164946;23;20037;-91
2023/10/19 04:23:37;;;;;;;18.10;9.98;;;;;;;6.49;100.00;96913.81;3147942;23;20025;-91
2023/10/19 04:24:53;;;;;;;16.48;9.43;;;;;;;6.35;100.00;96907.34;3139438;23;20480;-91
2023/10/19 04:26:12;;;;;;;16.75;9.80;;;;;;;5.93;100.00;96906.16;3154160;23;20047;-91
2023/10/19 04:27:28;;;;;;;19.40;10.68;;;;;;;6.36;100.00;96906.44;3164776;23;20793;-91
2023/10/19 04:28:50;;;;;;;20.42;10.68;;;;;;;6.43;100.00;96911.44;3164776;23;20383;-92
2023/10/19 04:30:15;;;;;;;19.10;10.70;;;;;;;6.30;100.00;96908.41;3148233;23;20045;-92
2023/10/19 04:31:31;;;;;;;21.23;11.07;;;;;;;6.20;100.00;96903.53;3156494;23;20069;-92
2023/10/19 04:32:46;;;;;;;18.20;10.80;;;;;;;6.34;100.00;96899.59;3164077;23;20026;-91
2023/10/19 04:34:07;;;;;;;18.38;11.10;;;;;;;6.50;100.00;96897.28;3164022;23;20077;-92
2023/10/19 04:35:22;;;;;;;21.85;9.98;;;;;;;6.59;100.00;96891.75;3147948;23;20110;-92
2023/10/19 04:36:39;;;;;;;18.27;9.98;;;;;;;6.67;100.00;96895.81;3153639;23;20018;-91
2023/10/19 04:37:56;;;;;;;17.23;10.15;;;;;;;6.71;100.00;96894.81;3165022;23;20022;-92
2023/10/19 04:39:13;;;;;;;18.05;10.18;;;;;;;6.62;100.00;96894.25;3164615;23;20485;-91
2023/10/19 04:40:29;;;;;;;17.20;9.70;;;;;;;6.57;100.00;96896.19;3165265;23;20030;-91
2023/10/19 04:41:48;;;;;;;16.85;10.05;;;;;;;6.34;100.00;96894.38;3149114;23;20022;-91
2023/10/19 04:43:06;;;;;;;18.13;10.38;;;;;;;6.43;100.00;96895.84;3156413;23;20050;-91
2023/10/19 04:44:22;;;;;;;18.63;10.15;;;;;;;6.58;100.00;96884.88;3163498;23;20450;-91
2023/10/19 04:45:41;;;;;;;18.00;10.32;;;;;;;6.69;100.00;96883.59;3149446;23;20049;-91
2023/10/19 04:46:58;;;;;;;18.60;9.48;;;;;;;6.64;100.00;96874.22;3148732;23;20528;-93
2023/10/19 04:48:13;;;;;;;17.45;10.05;;;;;;;6.55;100.00;96877.16;3150391;23;20045;-91
2023/10/19 04:49:29;;;;;;;19.00;10.48;;;;;;;6.27;100.00;96869.53;3153364;23;20379;-96
2023/10/19 04:50:44;;;;;;;20.65;11.35;;;;;;;6.22;100.00;96867.09;3165146;23;20459;-94
2023/10/19 04:52:00;;;;;;;16.20;10.27;;;;;;;6.26;100.00;96863.47;3166106;23;20446;-96
2023/10/19 04:53:15;;;;;;;22.17;11.60;;;;;;;6.44;100.00;96866.34;3164928;23;20021;-96
2023/10/19 04:54:31;;;;;;;18.55;10.52;;;;;;;6.57;100.00;96869.31;3165140;23;20026;-92
2023/10/19 04:55:47;;;;;;;21.63;12.02;;;;;;;6.64;100.00;96874.22;3149312;23;20079;-92
2023/10/19 04:57:03;;;;;;;20.88;12.40;;;;;;;6.69;100.00;96875.81;3155753;23;20017;-91
2023/10/19 04:58:18;;;;;;;19.83;11.02;;;;;;;6.77;100.00;96876.38;3163078;23;20032;-91
2023/10/19 04:59:34;;;;;;;19.10;11.50;;;;;;;6.65;100.00;96867.28;3162992;23;20045;-92
2023/10/19 05:00:49;;;;;;;19.20;11.20;;;;;;;6.64;100.00;96865.59;3161895;23;20022;-91
2023/10/19 05:02:05;;;;;;;19.13;11.38;;;;;;;6.68;100.00;96861.09;3132146;23;20131;-92
2023/10/19 05:03:21;;;;;;;19.30;11.02;;;;;;;6.71;100.00;96855.81;3131364;23;20097;-91
2023/10/19 05:04:37;;;;;;;18.48;10.88;;;;;;;6.73;100.00;96862.63;3154931;23;20476;-91
2023/10/19 05:05:52;;;;;;;19.55;10.82;;;;;;;6.74;100.00;96861.72;3163977;23;20030;-93
2023/10/19 05:07:11;;;;;;;16.75;10.50;;;;;;;6.55;100.00;96863.34;3162891;23;20033;-91
2023/10/19 05:08:27;;;;;;;18.77;10.27;;;;;;;5.95;100.00;96851.56;3164760;23;20026;-93
2023/10/19 05:09:44;;;;;;;17.88;10.98;;;;;;;6.12;100.00;96852.75;3147896;23;20410;-92
2023/10/19 05:10:59;;;;;;;21.55;10.82;;;;;;;6.24;100.00;96860.09;3138596;23;20093;-92
2023/10/19 05:12:15;;;;;;;20.48;11.35;;;;;;;6.44;100.00;96855.94;3153519;23;20513;-93
2023/10/19 05:13:32;;;;;;;20.73;10.85;;;;;;;6.40;100.00;96849.13;3163354;23;20458;-92
2023/10/19 05:14:48;;;;;;;20.92;10.90;;;;;;;6.17;100.00;96856.03;3163718;23;20049;-91
2023/10/19 05:16:05;;;;;;;24.13;11.52;;;;;;;6.45;100.00;96855.03;3165565;23;20026;-92
2023/10/19 05:17:21;;;;;;;21.25;10.63;;;;;;;6.52;100.00;96848.69;3152700;23;20093;-93
2023/10/19 05:18:36;;;;;;;22.17;10.65;;;;;;;6.57;100.00;96853.72;3140597;23;20022;-92
2023/10/19 05:19:52;;;;;;;18.02;10.50;;;;;;;6.49;100.00;96851.41;3141973;23;20475;-92
2023/10/19 05:21:10;;;;;;;22.30;11.35;;;;;;;6.58;100.00;96851.06;3124027;23;20475;-91
2023/10/19 05:22:29;;;;;;;18.52;10.68;;;;;;;6.67;100.00;96849.00;3124492;23;20542;-91
2023/10/19 05:23:45;;;;;;;20.40;11.27;;;;;;;6.62;100.00;96844.84;3133340;23;20026;-93
2023/10/19 05:25:01;;;;;;;20.08;11.15;;;;;;;6.68;100.00;96842.91;3123504;23;20030;-93
2023/10/19 05:26:16;;;;;;;19.85;11.18;;;;;;;6.75;100.00;96841.78;3144701;23;20369;-93
2023/10/19 05:27:32;;;;;;;16.65;11.02;;;;;;;6.75;100.00;96839.16;3166018;23;20395;-91
2023/10/19 05:28:47;;;;;;;17.02;10.73;;;;;;;6.38;100.00;96838.81;3148345;23;20018;-92
2023/10/19 05:30:04;;;;;;;17.67;10.73;;;;;;;6.56;100.00;96847.66;3139164;23;20412;-91
2023/10/19 05:31:20;;;;;;;19.48;11.10;;;;;;;6.60;100.00;96843.19;3148012;23;20027;-92
2023/10/19 05:32:35;;;;;;;21.75;11.25;;;;;;;6.52;100.00;96835.69;3155017;23;20025;-91
2023/10/19 05:33:53;;;;;;;18.58;10.73;;;;;;;6.52;100.00;96838.28;3148579;23;20482;-91
2023/10/19 05:35:12;;;;;;;19.33;11.07;;;;;;;6.56;100.00;96834.66;3124245;23;20042;-91
2023/10/19 05:36:28;;;;;;;20.08;10.82;;;;;;;6.21;100.00;96832.47;3132240;23;20459;-91
2023/10/19 05:37:43;;;;;;;20.95;11.23;;;;;;;6.26;100.00;96834.88;3155264;23;20046;-92
2023/10/19 05:38:59;;;;;;;22.23;11.90;;;;;;;6.53;100.00;96837.38;3164092;23;20498;-91
2023/10/19 05:40:15;;;;;;;18.42;11.45;;;;;;;6.62;100.00;96837.03;3147724;23;20033;-91
2023/10/19 05:41:31;;;;;;;19.15;10.73;;;;;;;6.32;100.00;96836.41;3154126;23;20093;-91
2023/10/19 05:42:47;;;;;;;20.02;11.32;;;;;;;6.19;100.00;96839.47;3164266;23;20335;-91
2023/10/19 05:44:03;;;;;;;20.88;11.45;;;;;;;6.28;100.00;96827.88;3148501;23;20080;-92
2023/10/19 05:45:19;;;;;;;17.77;10.88;;;;;;;6.39;100.00;96831.84;3154795;23;20025;-93
2023/10/19 05:46:36;;;;;;;23.52;11.77;;;;;;;6.57;100.00;96830.31;3148801;23;20065;-92
2023/10/19 05:47:51;;;;;;;19.23;11.90;;;;;;;6.63;100.00;96823.13;3155358;23;20030;-92
2023/10/19 05:49:07;;;;;;;20.63;11.95;;;;;;;6.46;100.00;96831.56;3165593;23;20021;-91
2023/10/19 05:50:23;;;;;;;17.77;10.93;;;;;;;6.26;100.00;96827.09;3162348;23;20041;-92
2023/10/19 05:51:41;;;;;;;20.42;11.40;;;;;;;6.23;100.00;96832.41;3147594;23;20025;-92
2023/10/19 05:52:56;;;;;;;20.15;11.35;;;;;;;6.26;100.00;96837.50;3139074;23;20061;-92
2023/10/19 05:54:12;;;;;;;20.52;11.55;;;;;;;6.28;100.00;96840.03;3154285;23;20707;-92
2023/10/19 05:55:28;;;;;;;17.60;10.77;;;;;;;5.79;100.00;96839.09;3163914;23;20024;-91
2023/10/19 05:56:45;;;;;;;21.75;12.18;;;;;;;6.17;100.00;96836.06;3147704;23;20038;-91
2023/10/19 05:58:04;;;;;;;20.83;11.80;;;;;;;6.45;100.00;96829.88;3154807;23;20026;-91
2023/10/19 05:59:19;;;;;;;21.40;11.30;;;;;;;6.60;100.00;96825.84;3147984;23;20023;-91
2023/10/19 06:00:35;;;;;;;20.17;11.48;;;;;;;6.67;100.00;96812.59;3154562;23;20029;-91
2023/10/19 06:01:51;;;;;;;20.95;11.07;;;;;;;6.46;100.00;96805.56;3163926;23;20026;-91
2023/10/19 06:03:07;;;;;;;19.40;11.00;;;;;;;6.18;100.00;96816.16;3147175;23;20086;-91
2023/10/19 06:04:23;;;;;;;18.40;10.82;;;;;;;5.92;100.00;96810.09;3140178;23;20037;-92
2023/10/19 06:05:39;;;;;;;23.17;11.93;;;;;;;5.75;100.00;96806.38;3138059;23;20434;-90
2023/10/19 06:06:54;;;;;;;22.95;12.93;;;;;;;6.19;100.00;96818.69;3154134;23;20355;-91
2023/10/19 06:08:11;;;;;;;21.52;11.57;;;;;;;6.36;100.00;96823.25;3147527;23;20023;-91
2023/10/19 06:09:29;;;;;;;23.08;12.35;;;;;;;6.24;100.00;96813.31;3139007;23;20074;-91
2023/10/19 06:10:51;;;;;;;25.80;12.75;;;;;;;6.57;100.00;96812.97;3147660;23;20086;-92